Time;durP1;ratioP1;P1;durP2;ratioP2;P2;SDS_P1;SDS_P2;PMS_P1;PMS_P2;Temp;Humidity;BMP_temperature;BMP_pressure;BME280_temperature;BME280_humidity;BME280_pressure;Samples;Min_cycle;Max_cycle;Signal;HPM_P1;HPM_P2
2022/01/12 00:01:10;;;;;;;72.28;34.95;;;2.90;91.70;;;;;;5015269;28;20476;-75
2022/01/12 00:03:37;;;;;;;64.95;33.40;;;2.90;91.60;;;;;;5031077;28;20551;-72
2022/01/12 00:06:07;;;;;;;74.45;35.22;;;2.90;91.60;;;;;;5042554;28;20478;-76
2022/01/12 00:08:35;;;;;;;65.10;35.20;;;2.90;91.60;;;;;;5015781;28;20372;-78
2022/01/12 00:11:04;;;;;;;73.32;38.00;;;2.80;91.60;;;;;;5010016;28;20068;-73
2022/01/12 00:13:32;;;;;;;69.65;36.30;;;2.90;91.70;;;;;;5012921;28;20399;-74
2022/01/12 00:16:01;;;;;;;70.55;36.22;;;2.90;91.70;;;;;;5008521;28;20033;-72
2022/01/12 00:18:31;;;;;;;71.55;36.22;;;2.90;91.70;;;;;;5017517;28;20412;-78
2022/01/12 00:20:58;;;;;;;70.57;35.22;;;2.90;91.70;;;;;;5020303;28;20038;-73
2022/01/12 00:23:27;;;;;;;73.13;36.03;;;2.90;91.70;;;;;;5011683;28;20026;-78
2022/01/12 00:34:00;;;;;;;65.78;34.60;;;2.80;91.70;;;;;;5023145;28;20084;-83
2022/01/12 00:36:27;;;;;;;70.18;38.03;;;2.90;91.90;;;;;;5023721;28;20441;-79
2022/01/12 00:38:52;;;;;;;68.78;35.55;;;2.90;91.90;;;;;;5020587;28;20630;-80
2022/01/12 00:41:18;;;;;;;68.43;33.47;;;2.90;91.90;;;;;;5013826;28;20041;-75
2022/01/12 00:43:47;;;;;;;71.47;36.53;;;2.90;91.90;;;;;;5006129;28;20062;-73
2022/01/12 00:46:14;;;;;;;69.30;37.58;;;2.90;92.00;;;;;;5022026;28;20033;-75
2022/01/12 00:48:40;;;;;;;69.90;35.63;;;2.90;92.10;;;;;;5020072;28;20083;-73
2022/01/12 00:51:06;;;;;;;67.22;37.05;;;2.90;92.10;;;;;;5013644;28;20037;-76
2022/01/12 00:53:31;;;;;;;74.57;36.70;;;2.90;92.10;;;;;;5016888;28;20077;-79
2022/01/12 00:55:57;;;;;;;75.68;36.67;;;2.90;92.10;;;;;;5020999;28;20038;-81
2022/01/12 00:58:23;;;;;;;70.78;35.95;;;2.80;92.10;;;;;;5024038;28;20032;-77
2022/01/12 01:00:48;;;;;;;75.00;37.95;;;2.80;92.30;;;;;;5024405;28;20049;-75
2022/01/12 01:03:15;;;;;;;75.13;37.72;;;2.80;92.30;;;;;;5022413;28;20372;-76
2022/01/12 01:05:41;;;;;;;69.35;36.67;;;2.70;92.30;;;;;;5024463;28;20032;-74
2022/01/12 01:08:07;;;;;;;70.00;35.60;;;2.70;92.40;;;;;;5020968;28;20037;-74
2022/01/12 01:13:03;;;;;;;71.40;36.40;;;2.70;92.50;;;;;;5009840;28;20040;-72
2022/01/12 01:26:28;;;;;;;69.93;37.15;;;2.80;92.50;;;;;;5020307;28;20040;-82
2022/01/12 01:28:53;;;;;;;73.32;37.72;;;2.80;92.60;;;;;;5017627;28;20030;-74
2022/01/12 01:31:20;;;;;;;75.72;36.67;;;2.90;92.60;;;;;;5018821;28;20033;-73
2022/01/12 01:33:46;;;;;;;70.63;35.60;;;2.90;92.60;;;;;;5019110;28;20049;-74
2022/01/12 01:36:13;;;;;;;69.72;36.40;;;2.80;92.60;;;;;;5019025;28;20721;-73
2022/01/12 01:38:39;;;;;;;70.18;36.55;;;2.80;92.60;;;;;;5012218;28;20061;-76
2022/01/12 01:41:05;;;;;;;74.20;35.30;;;2.80;92.70;;;;;;5021823;28;20061;-73
2022/01/12 01:54:12;;;;;;;63.55;35.20;;;2.80;92.80;;;;;;5020552;28;20072;-78
2022/01/12 01:56:37;;;;;;;72.75;35.65;;;2.80;92.70;;;;;;5019081;28;20099;-73
2022/01/12 01:59:03;;;;;;;69.00;35.85;;;2.80;92.70;;;;;;5015811;28;20419;-74
2022/01/12 02:01:29;;;;;;;70.90;36.80;;;2.80;92.70;;;;;;5022396;28;20025;-77
2022/01/12 02:03:58;;;;;;;64.97;34.67;;;2.80;92.70;;;;;;5017717;28;20053;-75
2022/01/12 02:06:25;;;;;;;65.10;34.45;;;2.80;92.80;;;;;;5020775;28;20445;-73
2022/01/12 02:08:50;;;;;;;65.25;36.58;;;2.80;92.80;;;;;;5012571;28;20048;-72
2022/01/12 02:11:16;;;;;;;65.53;35.65;;;2.80;92.80;;;;;;5015263;28;20372;-75
2022/01/12 02:13:42;;;;;;;67.30;35.08;;;2.80;92.80;;;;;;5021274;28;20444;-82
2022/01/12 02:16:07;;;;;;;65.32;35.92;;;2.80;92.70;;;;;;5017382;28;20033;-78
2022/01/12 02:18:54;;;;;;;72.13;37.05;;;2.80;92.80;;;;;;5012487;28;20041;-78
2022/01/12 02:35:19;;;;;;;;;;;2.80;92.60;;;;;;5020847;28;20504;-76
2022/01/12 02:40:25;;;;;;;76.20;36.50;;;2.90;92.60;;;;;;5019868;28;20576;-77
2022/01/12 02:43:06;;;;;;;73.80;37.67;;;2.90;92.60;;;;;;5022010;28;20128;-76
2022/01/12 02:53:44;;;;;;;68.40;36.22;;;2.90;92.70;;;;;;5021203;28;20033;-76
2022/01/12 02:56:24;;;;;;;73.25;38.40;;;2.90;92.70;;;;;;5022004;28;20033;-75
2022/01/12 02:58:51;;;;;;;69.82;37.70;;;3.00;92.60;;;;;;5022078;28;20054;-75
2022/01/12 03:03:50;;;;;;;71.45;37.05;;;2.90;92.50;;;;;;5018725;28;20203;-73
2022/01/12 03:06:22;;;;;;;68.13;35.75;;;2.80;92.50;;;;;;5022006;28;20029;-79
2022/01/12 03:08:48;;;;;;;69.07;36.33;;;2.80;92.60;;;;;;5004975;28;20040;-78
2022/01/12 03:11:17;;;;;;;70.47;36.50;;;2.90;92.70;;;;;;5016650;28;20030;-80
2022/01/12 03:13:43;;;;;;;67.53;37.20;;;2.90;92.70;;;;;;5013126;28;20377;-74
2022/01/12 03:16:13;;;;;;;66.38;36.35;;;2.90;92.70;;;;;;5029960;28;20034;-76
2022/01/12 03:18:41;;;;;;;68.82;37.55;;;2.90;92.80;;;;;;5022951;28;20033;-75
2022/01/12 03:21:07;;;;;;;69.97;35.97;;;2.90;92.70;;;;;;5018369;28;20041;-73
2022/01/12 03:23:33;;;;;;;67.53;34.90;;;3.00;92.80;;;;;;5022338;28;20368;-75
2022/01/12 03:25:59;;;;;;;68.93;37.63;;;3.00;92.70;;;;;;5020878;28;20350;-77
2022/01/12 03:28:25;;;;;;;65.97;35.38;;;2.90;92.70;;;;;;5021947;28;20040;-71
2022/01/12 03:38:45;;;;;;;68.50;36.17;;;2.90;92.70;;;;;;5013411;28;20041;-74
2022/01/12 03:41:11;;;;;;;68.78;36.40;;;2.90;92.60;;;;;;5022143;28;20109;-75
2022/01/12 03:43:37;;;;;;;65.65;36.25;;;2.90;92.50;;;;;;5014517;28;20180;-72
2022/01/12 03:46:04;;;;;;;67.70;36.10;;;2.90;92.50;;;;;;5014727;28;20524;-82
2022/01/12 03:48:29;;;;;;;70.22;37.05;;;2.90;92.50;;;;;;5020197;28;20036;-77
2022/01/12 03:50:56;;;;;;;65.30;35.92;;;3.00;92.50;;;;;;5021409;28;20392;-80
2022/01/12 03:53:22;;;;;;;66.80;37.53;;;3.00;92.50;;;;;;5018459;28;20152;-86
2022/01/12 03:55:48;;;;;;;70.05;36.53;;;2.90;92.40;;;;;;5009666;28;20029;-76
2022/01/12 03:58:14;;;;;;;70.07;37.88;;;2.90;92.40;;;;;;5016620;28;20026;-76
2022/01/12 04:00:40;;;;;;;59.97;34.65;;;3.00;92.50;;;;;;5021270;28;20034;-76
2022/01/12 04:03:06;;;;;;;64.38;36.92;;;3.00;92.50;;;;;;5019681;28;20377;-80
2022/01/12 04:08:20;;;;;;;69.28;38.58;;;2.90;92.50;;;;;;5024520;28;20029;-78
2022/01/12 04:10:57;;;;;;;70.20;37.03;;;3.00;92.50;;;;;;5010135;28;20424;-75
2022/01/12 04:13:25;;;;;;;66.95;37.42;;;2.90;92.50;;;;;;5008565;28;20412;-73
2022/01/12 04:15:58;;;;;;;71.30;39.00;;;3.00;92.40;;;;;;5023131;28;20078;-74
2022/01/12 04:18:24;;;;;;;70.18;37.92;;;3.00;92.50;;;;;;5022973;28;20041;-80
2022/01/12 04:20:51;;;;;;;72.32;38.90;;;3.00;92.60;;;;;;5011211;28;20041;-73
2022/01/12 04:23:22;;;;;;;64.13;35.30;;;3.00;92.60;;;;;;5005655;28;20037;-72
2022/01/12 04:25:51;;;;;;;71.25;38.83;;;3.00;92.50;;;;;;5018823;28;20030;-72
2022/01/12 04:28:18;;;;;;;67.40;37.10;;;3.00;92.40;;;;;;5023006;28;20290;-74
2022/01/12 04:30:45;;;;;;;68.13;36.63;;;3.00;92.50;;;;;;5018899;28;20036;-75
2022/01/12 04:33:11;;;;;;;67.90;36.10;;;3.00;92.50;;;;;;5024594;28;20025;-75
2022/01/12 04:35:45;;;;;;;62.08;35.97;;;3.00;92.50;;;;;;5023214;28;20103;-73
2022/01/12 04:38:10;;;;;;;68.63;35.40;;;3.00;92.60;;;;;;5038710;28;20042;-74
2022/01/12 04:40:36;;;;;;;63.72;36.05;;;3.00;92.60;;;;;;5025333;28;20048;-75
2022/01/12 04:43:02;;;;;;;61.35;35.05;;;3.10;92.60;;;;;;5020322;28;20401;-76
2022/01/12 04:50:20;;;;;;;63.42;35.03;;;3.10;92.70;;;;;;5023656;28;20503;-80
2022/01/12 04:52:46;;;;;;;64.20;34.92;;;3.00;92.80;;;;;;5022188;28;20073;-76
2022/01/12 04:55:12;;;;;;;63.30;35.80;;;3.00;92.80;;;;;;5038174;28;20144;-74
2022/01/12 04:57:38;;;;;;;65.63;34.65;;;3.00;92.90;;;;;;5023278;28;20029;-74
2022/01/12 05:00:14;;;;;;;68.10;35.67;;;3.00;92.90;;;;;;5010407;28;20044;-77
2022/01/12 05:08:23;;;;;;;59.60;34.08;;;2.90;93.00;;;;;;5023119;28;20491;-73
2022/01/12 05:13:34;;;;;;;66.43;37.25;;;2.90;93.00;;;;;;5011857;28;20491;-74
2022/01/12 05:16:01;;;;;;;66.65;35.33;;;2.90;93.10;;;;;;5021849;28;20033;-79
2022/01/12 05:18:31;;;;;;;61.70;35.38;;;2.90;93.10;;;;;;5016445;28;20385;-72
2022/01/12 05:20:57;;;;;;;65.25;35.35;;;2.90;93.10;;;;;;5020680;28;20502;-75
2022/01/12 05:23:23;;;;;;;65.45;35.55;;;2.90;93.10;;;;;;5018093;28;20397;-82
2022/01/12 05:25:51;;;;;;;59.50;35.63;;;2.90;93.20;;;;;;5008366;28;20026;-74
2022/01/12 05:28:17;;;;;;;63.40;35.65;;;3.00;93.20;;;;;;5010100;28;20044;-78
2022/01/12 05:30:43;;;;;;;65.90;35.47;;;3.00;93.20;;;;;;5009400;28;20045;-86
2022/01/12 05:33:09;;;;;;;62.50;35.25;;;3.00;93.20;;;;;;5005985;28;20026;-75
2022/01/12 05:35:36;;;;;;;60.33;35.13;;;3.00;93.30;;;;;;5028265;28;20120;-72
2022/01/12 05:38:04;;;;;;;62.75;34.72;;;3.00;93.30;;;;;;5014434;28;20038;-76
2022/01/12 05:40:31;;;;;;;59.00;33.33;;;3.00;93.30;;;;;;5006740;28;20113;-73
2022/01/12 05:43:00;;;;;;;60.47;33.65;;;3.00;93.30;;;;;;5014339;28;20034;-73
2022/01/12 05:45:26;;;;;;;64.85;37.53;;;3.00;93.30;;;;;;5031270;28;20123;-77
2022/01/12 05:50:20;;;;;;;61.35;35.58;;;3.10;93.30;;;;;;5019640;28;20121;-73
2022/01/12 05:52:46;;;;;;;57.13;33.17;;;3.00;93.30;;;;;;5017149;28;20433;-76
2022/01/12 05:55:13;;;;;;;66.60;36.33;;;3.00;93.30;;;;;;5021048;28;20135;-76
2022/01/12 05:57:39;;;;;;;64.65;34.53;;;3.00;93.30;;;;;;5011576;28;20034;-71
2022/01/12 06:00:11;;;;;;;62.03;35.03;;;3.00;93.40;;;;;;5013144;28;20061;-75
2022/01/12 06:02:37;;;;;;;63.08;34.55;;;3.00;93.40;;;;;;5011410;28;20038;-70
2022/01/12 06:05:03;;;;;;;67.78;34.88;;;3.00;93.50;;;;;;5009564;28;20056;-72
2022/01/12 06:07:29;;;;;;;61.05;35.10;;;3.00;93.50;;;;;;5003705;28;20057;-77
2022/01/12 06:09:55;;;;;;;67.60;36.08;;;3.10;93.50;;;;;;5027880;28;20120;-76
2022/01/12 06:12:21;;;;;;;61.53;33.63;;;3.10;93.50;;;;;;5010364;28;20435;-77
2022/01/12 06:14:47;;;;;;;63.47;34.97;;;3.10;93.50;;;;;;5018329;28;20444;-82
2022/01/12 06:17:12;;;;;;;62.88;36.05;;;3.10;93.50;;;;;;5015856;28;20079;-71
2022/01/12 06:19:39;;;;;;;66.80;36.40;;;3.10;93.50;;;;;;5015003;28;20424;-74
2022/01/12 06:22:06;;;;;;;69.70;35.83;;;3.10;93.50;;;;;;5015119;28;20496;-72
2022/01/12 06:24:32;;;;;;;68.82;37.63;;;3.10;93.50;;;;;;5020752;28;20100;-71
2022/01/12 06:26:59;;;;;;;70.10;37.25;;;3.10;93.50;;;;;;5032388;28;20473;-71
2022/01/12 06:29:38;;;;;;;67.85;36.90;;;3.10;93.50;;;;;;5019307;28;20025;-71
2022/01/12 06:32:05;;;;;;;65.93;37.22;;;3.10;93.50;;;;;;5007845;28;20156;-75
2022/01/12 06:34:31;;;;;;;61.67;35.63;;;3.10;93.50;;;;;;5022056;28;20473;-76
2022/01/12 06:36:56;;;;;;;67.35;36.75;;;3.10;93.50;;;;;;5015024;28;20037;-76
2022/01/12 06:39:23;;;;;;;68.30;37.63;;;3.10;93.50;;;;;;5018375;28;20655;-72
2022/01/12 06:41:51;;;;;;;68.57;37.05;;;3.10;93.50;;;;;;5014944;28;20034;-75
2022/01/12 06:44:20;;;;;;;67.65;38.53;;;3.20;93.60;;;;;;5018017;28;20026;-75
2022/01/12 06:46:47;;;;;;;75.22;39.35;;;3.20;93.50;;;;;;5020765;28;20065;-78
2022/01/12 06:49:13;;;;;;;65.78;36.55;;;3.10;93.50;;;;;;5021809;28;20036;-75
2022/01/12 06:51:39;;;;;;;70.93;36.47;;;3.10;93.50;;;;;;5020557;28;20424;-76
2022/01/12 06:54:06;;;;;;;73.15;38.67;;;3.10;93.50;;;;;;5020712;28;20347;-72
2022/01/12 06:56:31;;;;;;;72.55;37.88;;;3.10;93.50;;;;;;5021506;28;20099;-73
2022/01/12 06:58:57;;;;;;;68.57;36.85;;;3.20;93.50;;;;;;5022307;28;20098;-76
2022/01/12 07:01:23;;;;;;;74.45;38.75;;;3.10;93.60;;;;;;5009049;28;20148;-73
2022/01/12 07:03:49;;;;;;;64.10;35.00;;;3.10;93.50;;;;;;5022173;28;20397;-78
2022/01/12 07:06:15;;;;;;;70.72;37.13;;;3.20;93.60;;;;;;5018106;28;20049;-74
2022/01/12 07:08:41;;;;;;;75.13;37.90;;;3.20;93.60;;;;;;5014291;28;20038;-75
2022/01/12 07:11:06;;;;;;;66.15;34.92;;;3.20;93.60;;;;;;5035057;28;20613;-74
2022/01/12 07:13:32;;;;;;;81.60;39.35;;;3.20;93.60;;;;;;5020946;28;20128;-73
2022/01/12 07:15:58;;;;;;;73.82;39.80;;;3.20;93.60;;;;;;5009130;28;20079;-75
2022/01/12 07:18:26;;;;;;;73.65;39.60;;;3.20;93.60;;;;;;5012651;28;20034;-77
2022/01/12 07:20:52;;;;;;;73.10;39.20;;;3.20;93.60;;;;;;5018342;28;20564;-72
2022/01/12 07:23:17;;;;;;;72.95;39.65;;;3.20;93.60;;;;;;5017704;28;20409;-74
2022/01/12 07:25:43;;;;;;;72.00;37.50;;;3.20;93.60;;;;;;5017564;28;20198;-80
2022/01/12 07:28:09;;;;;;;64.13;36.13;;;3.30;93.60;;;;;;5015274;28;20045;-72
2022/01/12 07:30:35;;;;;;;69.38;38.08;;;3.30;93.50;;;;;;5019751;28;20037;-73
2022/01/12 07:33:00;;;;;;;71.13;37.90;;;3.30;93.60;;;;;;5018036;28;20415;-70
2022/01/12 07:35:26;;;;;;;72.43;38.67;;;3.30;93.50;;;;;;5020230;28;20135;-72
2022/01/12 07:37:52;;;;;;;72.88;39.35;;;3.30;93.50;;;;;;5018280;28;20099;-71
2022/01/12 07:40:18;;;;;;;76.60;39.55;;;3.30;93.50;;;;;;5015460;28;20037;-73
2022/01/12 07:42:44;;;;;;;70.78;37.45;;;3.30;93.50;;;;;;5003402;28;20536;-76
2022/01/12 07:45:10;;;;;;;69.15;38.35;;;3.30;93.50;;;;;;5025337;28;20033;-72
2022/01/12 07:47:36;;;;;;;74.28;40.30;;;3.30;93.50;;;;;;5017542;28;20038;-76
2022/01/12 07:50:05;;;;;;;77.82;42.40;;;3.40;93.60;;;;;;5005730;28;20038;-72
2022/01/12 07:52:31;;;;;;;76.55;40.05;;;3.40;93.50;;;;;;5007620;28;20033;-71
2022/01/12 07:54:58;;;;;;;69.53;38.42;;;3.40;93.50;;;;;;5014158;28;20060;-73
2022/01/12 07:57:24;;;;;;;75.60;40.72;;;3.30;93.50;;;;;;5007922;28;20029;-74
2022/01/12 07:59:49;;;;;;;74.55;40.28;;;3.40;93.50;;;;;;5014090;28;20057;-72
2022/01/12 08:02:15;;;;;;;76.28;40.72;;;3.40;93.60;;;;;;5014074;28;20164;-72
2022/01/12 08:04:41;;;;;;;83.40;41.25;;;3.40;93.60;;;;;;5001018;28;20037;-73
2022/01/12 08:07:10;;;;;;;79.97;42.05;;;3.40;93.70;;;;;;5018734;28;20034;-70
2022/01/12 08:09:36;;;;;;;82.70;42.30;;;3.40;93.70;;;;;;5004462;28;20050;-71
2022/01/12 08:12:02;;;;;;;80.93;41.70;;;3.40;93.70;;;;;;5005714;28;20060;-71
2022/01/12 08:14:27;;;;;;;79.72;42.28;;;3.50;93.70;;;;;;5032310;28;20463;-72
2022/01/12 08:16:53;;;;;;;85.25;42.70;;;3.50;93.70;;;;;;5010345;28;20049;-72
2022/01/12 08:19:21;;;;;;;77.70;41.30;;;3.50;93.70;;;;;;5015302;28;20042;-73
2022/01/12 08:21:47;;;;;;;77.22;41.13;;;3.50;93.70;;;;;;5025577;28;20115;-73
2022/01/12 08:24:12;;;;;;;74.35;41.75;;;3.50;93.70;;;;;;5015214;28;20050;-70
2022/01/12 08:26:39;;;;;;;82.70;40.58;;;3.50;93.70;;;;;;5015245;28;20041;-75
2022/01/12 08:29:05;;;;;;;85.72;45.33;;;3.50;93.70;;;;;;5010530;28;20033;-74
2022/01/12 08:31:31;;;;;;;83.03;42.97;;;3.60;93.80;;;;;;5006495;28;20030;-75
2022/01/12 08:33:58;;;;;;;88.82;46.05;;;3.60;93.70;;;;;;5016647;28;20056;-72
2022/01/12 08:36:26;;;;;;;86.80;45.65;;;3.60;93.70;;;;;;5033308;28;20044;-72
2022/01/12 08:38:55;;;;;;;78.85;44.55;;;3.60;93.80;;;;;;5018278;28;20038;-71
2022/01/12 08:41:24;;;;;;;79.22;43.10;;;3.60;93.70;;;;;;5001843;28;20050;-72
2022/01/12 08:43:53;;;;;;;85.78;43.58;;;3.70;93.70;;;;;;5010434;28;20124;-75
2022/01/12 08:46:21;;;;;;;80.32;42.53;;;3.70;93.60;;;;;;5007247;28;20040;-73
2022/01/12 08:48:49;;;;;;;81.82;44.03;;;3.60;93.60;;;;;;5006543;28;20049;-72
2022/01/12 08:51:18;;;;;;;83.32;43.83;;;3.70;93.60;;;;;;5019070;28;20060;-74
2022/01/12 08:53:46;;;;;;;81.28;42.88;;;3.70;93.60;;;;;;5012264;28;20108;-72
2022/01/12 08:56:14;;;;;;;90.63;45.75;;;3.70;93.60;;;;;;5008620;28;20064;-71
2022/01/12 08:58:42;;;;;;;91.13;46.15;;;3.80;93.70;;;;;;5011584;28;20030;-71
2022/01/12 09:01:10;;;;;;;100.88;47.55;;;3.90;93.70;;;;;;5016681;28;20041;-72
2022/01/12 09:03:37;;;;;;;87.65;44.58;;;3.90;93.50;;;;;;5030981;28;20037;-70
2022/01/12 09:06:03;;;;;;;92.75;45.42;;;3.90;93.50;;;;;;5010515;28;20034;-70
2022/01/12 09:08:29;;;;;;;91.95;44.53;;;3.90;93.40;;;;;;5009696;28;20037;-74
2022/01/12 09:10:55;;;;;;;102.03;48.85;;;3.90;93.30;;;;;;5009829;28;20135;-70
2022/01/12 09:13:21;;;;;;;97.88;47.67;;;3.90;93.30;;;;;;5028174;28;20503;-68
2022/01/12 09:15:46;;;;;;;92.30;45.42;;;4.00;93.40;;;;;;5035352;28;20032;-69
2022/01/12 09:18:12;;;;;;;103.82;47.08;;;4.00;93.40;;;;;;5034549;28;20057;-68
2022/01/12 09:20:38;;;;;;;101.75;46.33;;;4.00;93.40;;;;;;5033958;28;20061;-68
2022/01/12 09:23:05;;;;;;;98.00;45.58;;;4.00;93.40;;;;;;5029574;28;20033;-69
2022/01/12 09:25:35;;;;;;;93.80;47.10;;;4.10;93.40;;;;;;5035101;28;20028;-69
2022/01/12 09:28:02;;;;;;;99.95;46.08;;;4.10;93.50;;;;;;5031592;28;20041;-69
2022/01/12 09:30:29;;;;;;;102.53;49.28;;;4.10;93.50;;;;;;5034754;28;20429;-69
2022/01/12 09:32:55;;;;;;;106.53;48.65;;;4.20;93.60;;;;;;5031359;28;20053;-70
2022/01/12 09:35:21;;;;;;;107.45;50.80;;;4.20;93.60;;;;;;5032730;28;20132;-70
2022/01/12 09:37:47;;;;;;;108.07;48.97;;;4.30;93.70;;;;;;5034576;28;20541;-69
2022/01/12 09:40:13;;;;;;;104.35;50.20;;;4.30;93.60;;;;;;5034667;28;20117;-69
2022/01/12 09:42:43;;;;;;;110.82;49.78;;;4.30;93.60;;;;;;5033957;28;20030;-69
2022/01/12 09:45:14;;;;;;;109.20;49.40;;;4.40;93.50;;;;;;5034393;28;20060;-69
2022/01/12 09:47:40;;;;;;;119.28;54.05;;;4.50;93.50;;;;;;5034592;28;20079;-69
2022/01/12 09:50:06;;;;;;;112.95;51.83;;;4.50;93.50;;;;;;5030325;28;20038;-69
2022/01/12 09:52:32;;;;;;;99.43;47.88;;;4.50;93.50;;;;;;5032794;28;20022;-70
2022/01/12 09:54:57;;;;;;;101.47;50.80;;;4.60;93.50;;;;;;5034522;28;20055;-68
2022/01/12 09:57:23;;;;;;;111.97;51.10;;;4.60;93.50;;;;;;5033555;28;20025;-68
2022/01/12 09:59:48;;;;;;;100.57;47.38;;;4.60;93.50;;;;;;5031181;28;20029;-70
2022/01/12 10:02:19;;;;;;;111.88;49.95;;;4.70;93.40;;;;;;5033777;28;20364;-69
2022/01/12 10:04:45;;;;;;;106.95;49.28;;;4.70;93.50;;;;;;5034682;28;20068;-70
2022/01/12 10:07:12;;;;;;;102.40;48.45;;;4.70;93.30;;;;;;5033549;28;20342;-70
2022/01/12 10:09:48;;;;;;;105.93;47.33;;;4.70;93.30;;;;;;5031140;28;20036;-71
2022/01/12 10:12:19;;;;;;;97.50;46.60;;;4.70;93.20;;;;;;5033595;28;20029;-71
2022/01/12 10:14:46;;;;;;;165.15;48.67;;;4.80;93.30;;;;;;5034194;28;20044;-71
2022/01/12 10:17:14;;;;;;;99.25;46.00;;;4.80;93.40;;;;;;5033583;28;20026;-71
2022/01/12 10:19:41;;;;;;;114.90;41.88;;;4.90;93.30;;;;;;5031427;28;20040;-78
2022/01/12 10:22:10;;;;;;;120.25;43.72;;;4.90;93.30;;;;;;5029636;28;20041;-70
2022/01/12 10:24:40;;;;;;;131.38;45.90;;;4.80;93.20;;;;;;5033838;28;20038;-70
2022/01/12 10:27:14;;;;;;;88.15;40.25;;;4.90;93.30;;;;;;5031546;28;20415;-71
2022/01/12 10:29:41;;;;;;;75.90;33.53;;;4.90;93.60;;;;;;5033724;28;20062;-70
2022/01/12 10:32:08;;;;;;;80.68;33.60;;;4.80;93.40;;;;;;5029720;28;20097;-70
2022/01/12 10:34:42;;;;;;;75.93;32.55;;;4.90;93.50;;;;;;5033340;28;20105;-70
2022/01/12 10:37:14;;;;;;;60.33;29.90;;;4.90;93.40;;;;;;5028969;28;20475;-70
2022/01/12 10:39:49;;;;;;;83.88;34.30;;;4.80;93.50;;;;;;5029993;28;20167;-70
2022/01/12 10:42:19;;;;;;;123.72;40.28;;;4.80;93.60;;;;;;5012887;28;20477;-71
2022/01/12 10:44:49;;;;;;;95.75;36.67;;;4.70;93.80;;;;;;5014003;28;20034;-69
2022/01/12 10:47:17;;;;;;;80.00;35.22;;;4.70;93.90;;;;;;5018722;28;20029;-69
2022/01/12 10:49:56;;;;;;;120.00;35.58;;;4.70;94.20;;;;;;5031194;28;20026;-69
2022/01/12 10:52:40;;;;;;;142.75;36.92;;;4.70;94.20;;;;;;5030188;28;20369;-69
2022/01/12 10:55:14;;;;;;;104.75;40.05;;;4.60;94.30;;;;;;5027684;28;20461;-71
2022/01/12 10:57:44;;;;;;;163.57;41.10;;;4.70;94.60;;;;;;5030285;28;20117;-69
2022/01/12 11:00:24;;;;;;;138.35;39.13;;;4.70;94.60;;;;;;5030695;28;20168;-70
2022/01/12 11:02:58;;;;;;;88.90;38.70;;;4.70;94.80;;;;;;5030687;28;20064;-72
2022/01/12 11:05:27;;;;;;;105.10;41.38;;;4.90;95.00;;;;;;5033003;28;20408;-72
2022/01/12 11:07:54;;;;;;;94.43;38.28;;;4.90;94.90;;;;;;5029719;28;20034;-72
2022/01/12 11:10:21;;;;;;;127.60;37.92;;;5.10;95.00;;;;;;5032662;28;20025;-72
2022/01/12 11:12:50;;;;;;;120.18;41.05;;;5.10;94.90;;;;;;5029732;28;20247;-72
2022/01/12 11:15:19;;;;;;;152.32;42.28;;;5.00;94.80;;;;;;5030560;28;20026;-72
2022/01/12 11:17:48;;;;;;;108.97;39.22;;;5.00;94.70;;;;;;5047829;28;20473;-73
2022/01/12 11:20:19;;;;;;;116.18;40.17;;;5.00;94.70;;;;;;5032734;28;20036;-73
2022/01/12 11:23:00;;;;;;;97.35;38.03;;;5.00;94.80;;;;;;5032532;28;20052;-73
2022/01/12 11:25:41;;;;;;;107.00;41.58;;;5.10;94.90;;;;;;5047799;28;20047;-73
2022/01/12 11:28:20;;;;;;;127.75;43.38;;;5.20;94.90;;;;;;5028714;28;20493;-73
2022/01/12 11:30:50;;;;;;;128.15;46.13;;;5.30;95.00;;;;;;5017679;28;20091;-73
2022/01/12 11:33:20;;;;;;;127.70;45.47;;;5.30;94.80;;;;;;5003442;28;20053;-75
2022/01/12 11:35:51;;;;;;;120.00;44.40;;;5.30;94.70;;;;;;5012028;28;20103;-75
2022/01/12 11:38:28;;;;;;;152.30;45.92;;;5.40;94.70;;;;;;5009125;28;20042;-74
2022/01/12 11:41:07;;;;;;;160.85;46.03;;;5.50;94.60;;;;;;5012115;28;20041;-76
2022/01/12 11:43:50;;;;;;;103.05;43.45;;;5.40;94.50;;;;;;5012388;28;20021;-73
2022/01/12 11:46:19;;;;;;;103.55;42.97;;;5.40;94.60;;;;;;5009205;28;20084;-75
2022/01/12 11:48:46;;;;;;;117.75;45.00;;;5.60;94.70;;;;;;5009722;28;20056;-73
2022/01/12 11:51:13;;;;;;;107.80;48.35;;;5.50;94.50;;;;;;5006628;28;20045;-75
2022/01/12 11:53:50;;;;;;;134.40;46.83;;;5.40;94.40;;;;;;5011235;28;20042;-73
2022/01/12 11:56:22;;;;;;;110.75;40.75;;;5.40;94.40;;;;;;5007395;28;20041;-74
2022/01/12 11:59:11;;;;;;;117.43;43.75;;;5.50;94.60;;;;;;5017578;28;20118;-74
2022/01/12 12:01:40;;;;;;;107.78;40.47;;;5.40;94.40;;;;;;5008849;28;20049;-73
2022/01/12 12:04:08;;;;;;;112.63;42.50;;;5.40;94.40;;;;;;5011314;28;20038;-73
2022/01/12 12:06:35;;;;;;;100.18;42.17;;;5.40;94.50;;;;;;5009924;28;20117;-75
2022/01/12 12:09:05;;;;;;;104.63;44.05;;;5.40;94.50;;;;;;5010120;28;20426;-74
2022/01/12 12:11:33;;;;;;;119.43;48.22;;;5.40;94.60;;;;;;5009096;28;20596;-73
2022/01/12 12:14:09;;;;;;;106.97;42.28;;;5.40;94.50;;;;;;5008215;28;20029;-74
2022/01/12 12:16:36;;;;;;;105.97;40.38;;;5.50;94.50;;;;;;5009444;28;20045;-78
2022/01/12 12:19:04;;;;;;;104.72;39.97;;;5.60;94.50;;;;;;5009404;28;20061;-73
2022/01/12 12:21:32;;;;;;;96.72;42.03;;;5.60;94.50;;;;;;5028291;28;20117;-71
2022/01/12 12:24:15;;;;;;;98.50;40.10;;;5.70;94.50;;;;;;5033529;28;20082;-71
2022/01/12 12:26:50;;;;;;;85.93;38.85;;;5.70;94.30;;;;;;5035897;28;20025;-71
2022/01/12 12:29:25;;;;;;;85.65;37.97;;;5.80;94.40;;;;;;5035892;28;20029;-71
2022/01/12 12:31:51;;;;;;;;;;;5.90;94.20;;;;;;5036264;28;20036;-70
2022/01/12 12:34:17;;;;;;;95.32;41.47;;;6.00;94.10;;;;;;5025916;28;19917;-70
2022/01/12 12:36:42;;;;;;;92.75;42.20;;;6.00;94.00;;;;;;5017279;28;20465;-70
2022/01/12 12:39:13;;;;;;;99.57;46.75;;;6.00;93.90;;;;;;5033457;28;20041;-70
2022/01/12 12:41:44;;;;;;;97.78;45.45;;;5.80;93.50;;;;;;5030524;28;20041;-71
2022/01/12 12:44:21;;;;;;;94.32;46.90;;;5.60;93.40;;;;;;5048478;28;20021;-71
2022/01/12 12:46:48;;;;;;;95.18;45.33;;;5.60;93.50;;;;;;5029918;28;20037;-71
2022/01/12 12:49:14;;;;;;;100.25;48.03;;;5.70;93.60;;;;;;5030456;28;20032;-71
2022/01/12 12:51:40;;;;;;;89.70;45.47;;;5.70;93.60;;;;;;5015676;28;20038;-72
2022/01/12 12:54:06;;;;;;;88.60;44.33;;;5.70;93.60;;;;;;5014020;28;20026;-72
2022/01/12 12:56:40;;;;;;;90.57;44.72;;;5.70;93.30;;;;;;5013946;28;20393;-71
2022/01/12 12:59:07;;;;;;;94.55;44.25;;;5.80;93.50;;;;;;5015338;28;20060;-71
2022/01/12 13:01:33;;;;;;;92.35;43.72;;;5.90;93.50;;;;;;5015126;28;20042;-71
2022/01/12 13:04:00;;;;;;;87.63;42.38;;;5.60;92.50;;;;;;5016610;28;20096;-71
2022/01/12 13:06:29;;;;;;;83.47;41.90;;;5.60;92.70;;;;;;5031870;28;20022;-72
2022/01/12 13:08:57;;;;;;;77.95;40.85;;;5.70;92.90;;;;;;5013668;28;20444;-72
2022/01/12 13:11:40;;;;;;;76.85;39.75;;;5.70;92.80;;;;;;5045921;28;20028;-72
2022/01/12 13:14:16;;;;;;;83.00;41.35;;;5.80;92.90;;;;;;5015825;28;20038;-72
2022/01/12 13:16:49;;;;;;;79.70;40.95;;;6.00;93.00;;;;;;5015472;28;20050;-72
2022/01/12 13:21:06;;;;;;;82.00;41.20;;;6.10;93.00;;;;;;5033644;28;20053;-75
2022/01/12 13:22:33;;;;;;;80.18;41.33;;;6.10;92.90;;;;;;5038321;28;20376;-83
2022/01/12 13:25:01;;;;;;;82.90;42.22;;;6.20;92.50;;;;;;5023819;28;20473;-71
2022/01/12 13:27:27;;;;;;;91.15;45.47;;;6.20;92.60;;;;;;5024791;28;20121;-72
2022/01/12 13:29:53;;;;;;;83.75;43.80;;;6.20;92.20;;;;;;5015128;28;20034;-72
2022/01/12 13:32:20;;;;;;;87.47;45.10;;;6.10;91.80;;;;;;5011830;28;20080;-72
2022/01/12 13:35:09;;;;;;;80.32;42.20;;;6.10;91.80;;;;;;5024733;28;20042;-71
2022/01/12 13:37:36;;;;;;;81.53;44.28;;;5.90;91.30;;;;;;5013261;28;20079;-75
2022/01/12 13:40:11;;;;;;;86.60;42.90;;;5.80;91.20;;;;;;5020055;28;20049;-76
2022/01/12 13:42:54;;;;;;;;;;;5.70;91.30;;;;;;5020280;28;20033;-77
2022/01/12 13:45:26;;;;;;;87.47;42.08;;;5.60;91.40;;;;;;5015876;28;19921;-78
2022/01/12 13:47:59;;;;;;;95.00;46.75;;;5.70;91.50;;;;;;5011095;28;20041;-74
2022/01/12 13:50:36;;;;;;;98.10;47.65;;;5.70;91.70;;;;;;5013269;28;20046;-77
2022/01/12 13:53:04;;;;;;;88.57;45.00;;;5.70;91.80;;;;;;5024685;28;20140;-76
2022/01/12 13:55:29;;;;;;;104.78;50.10;;;5.80;92.00;;;;;;5013403;28;20033;-77
2022/01/12 13:58:06;;;;;;;97.90;47.08;;;5.80;91.60;;;;;;5017892;28;20498;-76
2022/01/12 14:00:34;;;;;;;107.05;50.30;;;5.90;91.70;;;;;;5012409;28;20037;-75
2022/01/12 14:03:00;;;;;;;102.30;51.03;;;5.90;91.60;;;;;;5006312;28;20029;-74
2022/01/12 14:05:39;;;;;;;99.10;52.05;;;6.00;91.60;;;;;;5011569;28;20034;-74
2022/01/12 14:08:13;;;;;;;104.55;52.38;;;6.00;91.20;;;;;;5015386;28;20025;-76